CAL67 RCTP-LKPR
Flight info
| Callsign | CAL67 |
|---|---|
| Flight time | N/A |
| Altitude | 34000 |
| Route | CHALI1C CHALI T3 MKG A1 KADLO T1 KAPLI DCT ALLEY V10 SIKOU/K0939S1040 R339 WUY R474 TEBAK/K0937F340 R474 NOB W21 BQ B214 LADON/N0507F340 B214 AKSAG/N0500F360 B465 CEA R460 LKN M890 SP/N0497F380 M890 SULOM A466 DI N644 LEMOD A909 BIBIM/N0489F400 A909 RODAR N644 ADEKI DCT BADIR DCT LAGAS DCT FOQUS DCT SARPI UM10 GOKPA UL746 ODERO L746 LUGEB DCT BUDOP DCT PATAK DCT LALES DCT BNO DCT TUMKA DCT VLM |
| Aircraft | A359/H-SDE2E3GHIJ3J4J5LM1ORWXY/LB1D1 |
Departure
| Time | N/A |
|---|---|
| Airport | Taiwan Taoyuan International Airport (RCTP) |
Arrival
| Time | 2026-05-06 17:35 |
|---|---|
| Airport | Václav Havel Airport Prague (LKPR) |
| Time | Latitude | Longitude | Altitude | Speed | Heading |
|---|---|---|---|---|---|
| 2026-05-06 16:47 | 47.11976 | 20.77975 | 33890 ft | 462 kts | 308° |
| 2026-05-06 16:47 | 47.14089 | 20.74421 | 33889 ft | 462 kts | 308° |
| 2026-05-06 16:48 | 47.18306 | 20.67312 | 33888 ft | 462 kts | 308° |
| 2026-05-06 16:48 | 47.22520 | 20.60190 | 33885 ft | 461 kts | 308° |
| 2026-05-06 16:49 | 47.26725 | 20.53065 | 33880 ft | 461 kts | 308° |
| 2026-05-06 16:49 | 47.30925 | 20.45930 | 33880 ft | 461 kts | 308° |
| 2026-05-06 16:50 | 47.35116 | 20.38790 | 33877 ft | 461 kts | 308° |
| 2026-05-06 16:50 | 47.39312 | 20.31623 | 33880 ft | 461 kts | 307° |
| 2026-05-06 16:51 | 47.43505 | 20.24440 | 33878 ft | 462 kts | 307° |
| 2026-05-06 16:51 | 47.47704 | 20.17230 | 33877 ft | 462 kts | 307° |
| 2026-05-06 16:52 | 47.51889 | 20.10025 | 33880 ft | 462 kts | 307° |
| 2026-05-06 16:52 | 47.56039 | 20.02861 | 33880 ft | 460 kts | 307° |
| 2026-05-06 16:53 | 47.60237 | 19.95596 | 33877 ft | 461 kts | 307° |
| 2026-05-06 16:53 | 47.64379 | 19.88405 | 33877 ft | 462 kts | 307° |
| 2026-05-06 16:54 | 47.68546 | 19.81154 | 33877 ft | 462 kts | 307° |
| 2026-05-06 16:54 | 47.72707 | 19.73893 | 33878 ft | 462 kts | 307° |
| 2026-05-06 16:55 | 47.76864 | 19.66619 | 33879 ft | 462 kts | 306° |
| 2026-05-06 16:55 | 47.81021 | 19.59326 | 33878 ft | 462 kts | 306° |
| 2026-05-06 16:56 | 47.85169 | 19.52027 | 33888 ft | 461 kts | 306° |
| 2026-05-06 16:56 | 47.89306 | 19.44728 | 33874 ft | 461 kts | 306° |
| 2026-05-06 16:57 | 47.93414 | 19.37464 | 33879 ft | 461 kts | 306° |
| 2026-05-06 16:57 | 47.97551 | 19.30129 | 33871 ft | 462 kts | 306° |
| 2026-05-06 16:58 | 48.01685 | 19.22775 | 33867 ft | 462 kts | 306° |
| 2026-05-06 16:58 | 48.05817 | 19.15406 | 33867 ft | 462 kts | 306° |
| 2026-05-06 16:59 | 48.09961 | 19.08049 | 33886 ft | 462 kts | 306° |
| 2026-05-06 16:59 | 48.14163 | 19.00719 | 33862 ft | 464 kts | 306° |
| 2026-05-06 17:00 | 48.18369 | 18.93378 | 33861 ft | 464 kts | 306° |
| 2026-05-06 17:00 | 48.22565 | 18.86016 | 33862 ft | 464 kts | 306° |
| 2026-05-06 17:01 | 48.26716 | 18.78700 | 33858 ft | 463 kts | 306° |
| 2026-05-06 17:01 | 48.30887 | 18.71325 | 33857 ft | 464 kts | 306° |
| 2026-05-06 17:02 | 48.35065 | 18.63919 | 33848 ft | 465 kts | 306° |
| 2026-05-06 17:02 | 48.39244 | 18.56489 | 33849 ft | 465 kts | 305° |
| 2026-05-06 17:03 | 48.43414 | 18.49055 | 33842 ft | 465 kts | 305° |
| 2026-05-06 17:03 | 48.47579 | 18.41611 | 33855 ft | 465 kts | 305° |
| 2026-05-06 17:04 | 48.51740 | 18.34153 | 33837 ft | 464 kts | 305° |
| 2026-05-06 17:04 | 48.55192 | 18.27948 | 33822 ft | 464 kts | 305° |
| 2026-05-06 17:05 | 48.59335 | 18.20484 | 33816 ft | 464 kts | 305° |
| 2026-05-06 17:05 | 48.63474 | 18.13003 | 33810 ft | 464 kts | 304° |
| 2026-05-06 17:06 | 48.67608 | 18.05513 | 33803 ft | 463 kts | 304° |
| 2026-05-06 17:06 | 48.71733 | 17.98019 | 33823 ft | 463 kts | 304° |
| 2026-05-06 17:07 | 48.75804 | 17.90603 | 33817 ft | 463 kts | 304° |
| 2026-05-06 17:07 | 48.79641 | 17.83591 | 33797 ft | 463 kts | 304° |
| 2026-05-06 17:08 | 48.83772 | 17.76021 | 33787 ft | 462 kts | 304° |
| 2026-05-06 17:08 | 48.87247 | 17.68051 | 33783 ft | 451 kts | 291° |
| 2026-05-06 17:09 | 48.89889 | 17.59355 | 33781 ft | 450 kts | 289° |
| 2026-05-06 17:09 | 48.92343 | 17.50684 | 33774 ft | 449 kts | 288° |
| 2026-05-06 17:10 | 48.94792 | 17.41937 | 33774 ft | 449 kts | 288° |
| 2026-05-06 17:10 | 48.97246 | 17.33198 | 33774 ft | 449 kts | 288° |
| 2026-05-06 17:11 | 48.99703 | 17.24456 | 33773 ft | 449 kts | 288° |
| 2026-05-06 17:11 | 49.02154 | 17.15707 | 33773 ft | 449 kts | 288° |
| 2026-05-06 17:12 | 49.04604 | 17.06932 | 33765 ft | 449 kts | 288° |
| 2026-05-06 17:12 | 49.07043 | 16.98166 | 33792 ft | 449 kts | 288° |
| 2026-05-06 17:13 | 49.09472 | 16.89399 | 33759 ft | 449 kts | 288° |
| 2026-05-06 17:13 | 49.11893 | 16.80626 | 33746 ft | 449 kts | 288° |
| 2026-05-06 17:14 | 49.14312 | 16.71834 | 33744 ft | 449 kts | 287° |
| 2026-05-06 17:14 | 49.16891 | 16.63926 | 33747 ft | 452 kts | 292° |
| 2026-05-06 17:15 | 49.19836 | 16.55433 | 33751 ft | 453 kts | 291° |
| 2026-05-06 17:15 | 49.22804 | 16.46949 | 33514 ft | 449 kts | 291° |
| 2026-05-06 17:15 | 49.24269 | 16.42765 | 33120 ft | 440 kts | 291° |
| 2026-05-06 17:16 | 49.25701 | 16.38659 | 32253 ft | 442 kts | 291° |
| 2026-05-06 17:16 | 49.27145 | 16.34483 | 31319 ft | 445 kts | 291° |
| 2026-05-06 17:16 | 49.28593 | 16.30281 | 30409 ft | 448 kts | 292° |
| 2026-05-06 17:16 | 49.30052 | 16.26041 | 29428 ft | 452 kts | 292° |
| 2026-05-06 17:17 | 49.31503 | 16.21823 | 28593 ft | 452 kts | 292° |
| 2026-05-06 17:17 | 49.32984 | 16.17535 | 27953 ft | 448 kts | 292° |
| 2026-05-06 17:17 | 49.34434 | 16.13329 | 27268 ft | 444 kts | 292° |
| 2026-05-06 17:17 | 49.35850 | 16.09215 | 26607 ft | 441 kts | 292° |
| 2026-05-06 17:18 | 49.37273 | 16.05070 | 25944 ft | 437 kts | 292° |
| 2026-05-06 17:18 | 49.38682 | 16.00952 | 25282 ft | 434 kts | 292° |
| 2026-05-06 17:18 | 49.40080 | 15.96857 | 24636 ft | 432 kts | 292° |
| 2026-05-06 17:18 | 49.41471 | 15.92783 | 24012 ft | 429 kts | 292° |
| 2026-05-06 17:19 | 49.42856 | 15.88731 | 23377 ft | 427 kts | 292° |
| 2026-05-06 17:19 | 49.44230 | 15.84700 | 22661 ft | 424 kts | 292° |
| 2026-05-06 17:19 | 49.45594 | 15.80696 | 22014 ft | 420 kts | 292° |
| 2026-05-06 17:19 | 49.46942 | 15.76734 | 21361 ft | 416 kts | 292° |
| 2026-05-06 17:20 | 49.48275 | 15.72809 | 20716 ft | 412 kts | 292° |
| 2026-05-06 17:20 | 49.49593 | 15.68922 | 20084 ft | 408 kts | 292° |
| 2026-05-06 17:20 | 49.50898 | 15.65072 | 19442 ft | 404 kts | 292° |
| 2026-05-06 17:20 | 49.52192 | 15.61244 | 18796 ft | 401 kts | 292° |
| 2026-05-06 17:21 | 49.53475 | 15.57446 | 18166 ft | 399 kts | 292° |
| 2026-05-06 17:21 | 49.54749 | 15.53664 | 17449 ft | 396 kts | 292° |
| 2026-05-06 17:21 | 49.56010 | 15.49919 | 16786 ft | 392 kts | 292° |
| 2026-05-06 17:21 | 49.57257 | 15.46210 | 16116 ft | 388 kts | 292° |
| 2026-05-06 17:22 | 49.58491 | 15.42532 | 15484 ft | 385 kts | 292° |
| 2026-05-06 17:22 | 49.59713 | 15.38885 | 14814 ft | 382 kts | 293° |
| 2026-05-06 17:22 | 49.60928 | 15.35252 | 14165 ft | 379 kts | 293° |
| 2026-05-06 17:22 | 49.62130 | 15.31654 | 13497 ft | 377 kts | 294° |
| 2026-05-06 17:23 | 49.63329 | 15.28063 | 12776 ft | 374 kts | 294° |
| 2026-05-06 17:23 | 49.64516 | 15.24504 | 12104 ft | 371 kts | 294° |
| 2026-05-06 17:23 | 49.65688 | 15.20985 | 11444 ft | 367 kts | 294° |
| 2026-05-06 17:23 | 49.66841 | 15.17518 | 10974 ft | 358 kts | 294° |
| 2026-05-06 17:24 | 49.67952 | 15.14183 | 10835 ft | 340 kts | 294° |
| 2026-05-06 17:24 | 49.69002 | 15.11023 | 10704 ft | 323 kts | 294° |
| 2026-05-06 17:24 | 49.70008 | 15.08010 | 10573 ft | 308 kts | 294° |
| 2026-05-06 17:24 | 49.71145 | 15.05286 | 10445 ft | 297 kts | 302° |
| 2026-05-06 17:25 | 49.72373 | 15.02802 | 10328 ft | 284 kts | 303° |
| 2026-05-06 17:25 | 49.73564 | 15.00438 | 10196 ft | 273 kts | 303° |
| 2026-05-06 17:25 | 49.74715 | 14.98149 | 10082 ft | 268 kts | 303° |
| 2026-05-06 17:25 | 49.75859 | 14.95866 | 9821 ft | 268 kts | 303° |
| 2026-05-06 17:26 | 49.76991 | 14.93599 | 9509 ft | 276 kts | 303° |
| 2026-05-06 17:26 | 49.78185 | 14.91196 | 9420 ft | 284 kts | 303° |
| 2026-05-06 17:26 | 49.79384 | 14.88794 | 8997 ft | 282 kts | 303° |
| 2026-05-06 17:26 | 49.80590 | 14.86354 | 8388 ft | 288 kts | 303° |
| 2026-05-06 17:27 | 49.81812 | 14.83876 | 7860 ft | 290 kts | 303° |
| 2026-05-06 17:27 | 49.83038 | 14.81393 | 7379 ft | 290 kts | 304° |
| 2026-05-06 17:27 | 49.83377 | 14.80707 | 7279 ft | 290 kts | 304° |
| 2026-05-06 17:27 | 49.84066 | 14.79314 | 7067 ft | 288 kts | 304° |
| 2026-05-06 17:28 | 49.85272 | 14.76876 | 6798 ft | 283 kts | 304° |
| 2026-05-06 17:28 | 49.86475 | 14.74433 | 6747 ft | 288 kts | 304° |
| 2026-05-06 17:28 | 49.87697 | 14.71950 | 6749 ft | 290 kts | 304° |
| 2026-05-06 17:28 | 49.88913 | 14.69481 | 6464 ft | 287 kts | 304° |
| 2026-05-06 17:29 | 49.90127 | 14.67010 | 5955 ft | 289 kts | 304° |
| 2026-05-06 17:29 | 49.91339 | 14.64544 | 5656 ft | 283 kts | 305° |
| 2026-05-06 17:29 | 49.92512 | 14.62161 | 5491 ft | 272 kts | 304° |
| 2026-05-06 17:29 | 49.93639 | 14.59867 | 5274 ft | 264 kts | 304° |
| 2026-05-06 17:30 | 49.94746 | 14.57606 | 4934 ft | 262 kts | 304° |
| 2026-05-06 17:30 | 49.95835 | 14.55378 | 4722 ft | 255 kts | 306° |
| 2026-05-06 17:30 | 49.96884 | 14.53236 | 4609 ft | 243 kts | 305° |
| 2026-05-06 17:30 | 49.97896 | 14.51168 | 4482 ft | 241 kts | 304° |
| 2026-05-06 17:31 | 49.98905 | 14.49096 | 4361 ft | 236 kts | 306° |
| 2026-05-06 17:31 | 49.99871 | 14.47104 | 4228 ft | 226 kts | 305° |
| 2026-05-06 17:31 | 50.00807 | 14.45175 | 3960 ft | 222 kts | 306° |
| 2026-05-06 17:31 | 50.01697 | 14.43343 | 3654 ft | 208 kts | 306° |
| 2026-05-06 17:32 | 50.02537 | 14.41611 | 3378 ft | 188 kts | 306° |
| 2026-05-06 17:32 | 50.03283 | 14.40068 | 3129 ft | 175 kts | 307° |
| 2026-05-06 17:32 | 50.04005 | 14.38578 | 2911 ft | 172 kts | 307° |
| 2026-05-06 17:32 | 50.04721 | 14.37101 | 2687 ft | 170 kts | 307° |
| 2026-05-06 17:33 | 50.05418 | 14.35659 | 2461 ft | 161 kts | 307° |
| 2026-05-06 17:33 | 50.06067 | 14.34317 | 2243 ft | 149 kts | 309° |
| 2026-05-06 17:33 | 50.06673 | 14.33065 | 2057 ft | 140 kts | 308° |
| 2026-05-06 17:33 | 50.07252 | 14.31871 | 1867 ft | 138 kts | 309° |
| 2026-05-06 17:34 | 50.07830 | 14.30674 | 1692 ft | 138 kts | 309° |
| 2026-05-06 17:34 | 50.08404 | 14.29484 | 1469 ft | 136 kts | 307° |
| 2026-05-06 17:34 | 50.08972 | 14.28316 | 1301 ft | 135 kts | 306° |
| 2026-05-06 17:34 | 50.09525 | 14.27172 | 1212 ft | 118 kts | 307° |
| 2026-05-06 17:35 | 50.09916 | 14.26364 | 1205 ft | 69 kts | 307° |
| 2026-05-06 17:35 | 50.10101 | 14.25982 | 1196 ft | 20 kts | 307° |
| 2026-05-06 17:35 | 50.10183 | 14.25815 | 1192 ft | 21 kts | 310° |
| 2026-05-06 17:36 | 50.10376 | 14.25660 | 1189 ft | 13 kts | 355° |
| 2026-05-06 17:36 | 50.10401 | 14.25659 | 1189 ft | 0 kts | 0° |
| 2026-05-06 17:37 | 50.10423 | 14.25661 | 1189 ft | 7 kts | 4° |
| 2026-05-06 17:37 | 50.10492 | 14.25687 | 1187 ft | 13 kts | 20° |
| 2026-05-06 17:37 | 50.10589 | 14.25775 | 1172 ft | 19 kts | 34° |
| 2026-05-06 17:38 | 50.10681 | 14.25874 | 1176 ft | 9 kts | 34° |
| 2026-05-06 17:38 | 50.10741 | 14.25938 | 1174 ft | 12 kts | 34° |
| 2026-05-06 17:38 | 50.10820 | 14.26020 | 1175 ft | 15 kts | 34° |
| 2026-05-06 17:38 | 50.10913 | 14.26119 | 1172 ft | 18 kts | 34° |
| 2026-05-06 17:39 | 50.10987 | 14.26198 | 1172 ft | 13 kts | 34° |
| 2026-05-06 17:39 | 50.11053 | 14.26268 | 1170 ft | 8 kts | 34° |
| 2026-05-06 17:39 | 50.11081 | 14.26331 | 1170 ft | 7 kts | 78° |
| 2026-05-06 17:39 | 50.11079 | 14.26396 | 1173 ft | 5 kts | 96° |
| 2026-05-06 17:40 | 50.11078 | 14.26410 | 1172 ft | 0 kts | 96° |
| 2026-05-06 17:44 | 50.11078 | 14.26419 | 1175 ft | 4 kts | 96° |
| 2026-05-06 17:44 | 50.11071 | 14.26504 | 1176 ft | 8 kts | 99° |
| 2026-05-06 17:45 | 50.11046 | 14.26582 | 1177 ft | 8 kts | 130° |
| 2026-05-06 17:45 | 50.11003 | 14.26586 | 1177 ft | 7 kts | 201° |
| 2026-05-06 17:45 | 50.10981 | 14.26566 | 1176 ft | 4 kts | 213° |
| 2026-05-06 17:45 | 50.10970 | 14.26554 | 1176 ft | 1 kts | 214° |
| 2026-05-06 17:46 | 50.10963 | 14.26546 | 1175 ft | 1 kts | 214° |